sensor_id;sensor_type;location;lat;lon;timestamp;temperature;humidity
25963;DHT22;13760;52.588;13.406;2022-07-22T00:01:02;21.40;99.90
25963;DHT22;13760;52.588;13.406;2022-07-22T00:03:28;21.40;99.90
25963;DHT22;13760;52.588;13.406;2022-07-22T00:05:54;21.40;99.90
25963;DHT22;13760;52.588;13.406;2022-07-22T00:08:19;21.40;99.90
25963;DHT22;13760;52.588;13.406;2022-07-22T00:10:45;21.40;99.90
25963;DHT22;13760;52.588;13.406;2022-07-22T00:13:10;21.40;99.90
25963;DHT22;13760;52.588;13.406;2022-07-22T00:15:36;21.40;99.90
25963;DHT22;13760;52.588;13.406;2022-07-22T00:18:02;21.40;99.90
25963;DHT22;13760;52.588;13.406;2022-07-22T00:20:27;21.40;99.90
25963;DHT22;13760;52.588;13.406;2022-07-22T00:22:53;21.40;99.90
25963;DHT22;13760;52.588;13.406;2022-07-22T00:25:18;21.40;99.90
25963;DHT22;13760;52.588;13.406;2022-07-22T00:27:44;21.40;99.90
25963;DHT22;13760;52.588;13.406;2022-07-22T00:30:10;21.40;99.90
25963;DHT22;13760;52.588;13.406;2022-07-22T00:32:36;21.40;99.90
25963;DHT22;13760;52.588;13.406;2022-07-22T00:35:02;21.40;99.90
25963;DHT22;13760;52.588;13.406;2022-07-22T00:37:27;21.40;99.90
25963;DHT22;13760;52.588;13.406;2022-07-22T00:39:53;21.40;99.90
25963;DHT22;13760;52.588;13.406;2022-07-22T00:42:18;21.40;99.90
25963;DHT22;13760;52.588;13.406;2022-07-22T00:44:44;21.40;99.90
25963;DHT22;13760;52.588;13.406;2022-07-22T00:47:11;21.40;99.90
25963;DHT22;13760;52.588;13.406;2022-07-22T00:49:36;21.40;99.90
25963;DHT22;13760;52.588;13.406;2022-07-22T00:52:02;21.40;99.90
25963;DHT22;13760;52.588;13.406;2022-07-22T00:54:28;21.30;99.90
25963;DHT22;13760;52.588;13.406;2022-07-22T00:56:55;21.40;99.90
25963;DHT22;13760;52.588;13.406;2022-07-22T00:59:20;21.40;99.90
25963;DHT22;13760;52.588;13.406;2022-07-22T01:01:46;21.40;99.90
25963;DHT22;13760;52.588;13.406;2022-07-22T01:04:12;21.40;99.90
25963;DHT22;13760;52.588;13.406;2022-07-22T01:06:37;21.30;99.90
25963;DHT22;13760;52.588;13.406;2022-07-22T01:09:03;21.30;99.90
25963;DHT22;13760;52.588;13.406;2022-07-22T01:11:29;21.30;99.90
25963;DHT22;13760;52.588;13.406;2022-07-22T01:13:56;21.30;99.90
25963;DHT22;13760;52.588;13.406;2022-07-22T01:16:22;21.20;99.90
25963;DHT22;13760;52.588;13.406;2022-07-22T01:18:48;21.20;99.90
25963;DHT22;13760;52.588;13.406;2022-07-22T01:21:15;21.20;99.90
25963;DHT22;13760;52.588;13.406;2022-07-22T01:23:41;21.20;99.90
25963;DHT22;13760;52.588;13.406;2022-07-22T01:26:07;21.20;99.90
25963;DHT22;13760;52.588;13.406;2022-07-22T01:28:33;21.10;99.90
25963;DHT22;13760;52.588;13.406;2022-07-22T01:30:59;21.10;99.90
25963;DHT22;13760;52.588;13.406;2022-07-22T01:33:25;21.10;99.90
25963;DHT22;13760;52.588;13.406;2022-07-22T01:35:51;21.10;99.90
25963;DHT22;13760;52.588;13.406;2022-07-22T01:38:17;21.00;99.90
25963;DHT22;13760;52.588;13.406;2022-07-22T01:40:43;21.00;99.90
25963;DHT22;13760;52.588;13.406;2022-07-22T01:43:10;21.00;99.90
25963;DHT22;13760;52.588;13.406;2022-07-22T01:45:35;21.00;99.90
25963;DHT22;13760;52.588;13.406;2022-07-22T01:48:02;21.00;99.90
25963;DHT22;13760;52.588;13.406;2022-07-22T01:50:28;21.00;99.90
25963;DHT22;13760;52.588;13.406;2022-07-22T01:52:54;20.90;99.90
25963;DHT22;13760;52.588;13.406;2022-07-22T01:55:20;20.90;99.90
25963;DHT22;13760;52.588;13.406;2022-07-22T01:57:46;20.90;99.90
25963;DHT22;13760;52.588;13.406;2022-07-22T02:00:12;20.80;99.90
25963;DHT22;13760;52.588;13.406;2022-07-22T02:02:37;20.80;99.90
25963;DHT22;13760;52.588;13.406;2022-07-22T02:05:04;20.80;99.90
25963;DHT22;13760;52.588;13.406;2022-07-22T02:07:30;20.80;99.90
25963;DHT22;13760;52.588;13.406;2022-07-22T02:09:56;20.80;99.90
25963;DHT22;13760;52.588;13.406;2022-07-22T02:12:22;20.80;99.90
25963;DHT22;13760;52.588;13.406;2022-07-22T02:14:47;20.80;99.90
25963;DHT22;13760;52.588;13.406;2022-07-22T02:17:13;20.70;99.90
25963;DHT22;13760;52.588;13.406;2022-07-22T02:19:40;20.70;99.90
25963;DHT22;13760;52.588;13.406;2022-07-22T02:22:06;20.70;99.90
25963;DHT22;13760;52.588;13.406;2022-07-22T02:24:31;20.60;99.90
25963;DHT22;13760;52.588;13.406;2022-07-22T02:26:57;20.60;99.90
25963;DHT22;13760;52.588;13.406;2022-07-22T02:29:23;20.50;99.90
25963;DHT22;13760;52.588;13.406;2022-07-22T02:31:48;20.50;99.90
25963;DHT22;13760;52.588;13.406;2022-07-22T02:34:14;20.50;99.90
25963;DHT22;13760;52.588;13.406;2022-07-22T02:36:40;20.40;99.90
25963;DHT22;13760;52.588;13.406;2022-07-22T02:39:06;20.40;99.90
25963;DHT22;13760;52.588;13.406;2022-07-22T02:41:32;20.40;99.90
25963;DHT22;13760;52.588;13.406;2022-07-22T02:43:58;20.30;99.90
25963;DHT22;13760;52.588;13.406;2022-07-22T02:46:24;20.30;99.90
25963;DHT22;13760;52.588;13.406;2022-07-22T02:48:50;20.30;99.90
25963;DHT22;13760;52.588;13.406;2022-07-22T02:51:16;20.20;99.90
25963;DHT22;13760;52.588;13.406;2022-07-22T02:53:41;20.20;99.90
25963;DHT22;13760;52.588;13.406;2022-07-22T02:56:07;20.30;99.90
25963;DHT22;13760;52.588;13.406;2022-07-22T02:58:33;20.20;99.90
25963;DHT22;13760;52.588;13.406;2022-07-22T03:00:59;20.20;99.90
25963;DHT22;13760;52.588;13.406;2022-07-22T03:03:25;20.10;99.90
25963;DHT22;13760;52.588;13.406;2022-07-22T03:05:51;20.10;99.90
25963;DHT22;13760;52.588;13.406;2022-07-22T03:08:17;20.10;99.90
25963;DHT22;13760;52.588;13.406;2022-07-22T03:10:43;20.10;99.90
25963;DHT22;13760;52.588;13.406;2022-07-22T03:13:09;20.10;99.90
25963;DHT22;13760;52.588;13.406;2022-07-22T03:15:35;20.10;99.90
25963;DHT22;13760;52.588;13.406;2022-07-22T03:18:00;20.10;99.90
25963;DHT22;13760;52.588;13.406;2022-07-22T03:20:26;20.10;99.90
25963;DHT22;13760;52.588;13.406;2022-07-22T03:22:52;20.00;99.90
25963;DHT22;13760;52.588;13.406;2022-07-22T03:25:18;20.00;99.90
25963;DHT22;13760;52.588;13.406;2022-07-22T03:27:44;20.00;99.90
25963;DHT22;13760;52.588;13.406;2022-07-22T03:30:10;20.00;99.90
25963;DHT22;13760;52.588;13.406;2022-07-22T03:32:36;19.90;99.90
25963;DHT22;13760;52.588;13.406;2022-07-22T03:35:02;19.90;99.90
25963;DHT22;13760;52.588;13.406;2022-07-22T03:37:27;19.90;99.90
25963;DHT22;13760;52.588;13.406;2022-07-22T03:39:53;19.80;99.90
25963;DHT22;13760;52.588;13.406;2022-07-22T03:42:19;19.80;99.90
25963;DHT22;13760;52.588;13.406;2022-07-22T03:44:44;19.80;99.90
25963;DHT22;13760;52.588;13.406;2022-07-22T03:47:10;19.80;99.90
25963;DHT22;13760;52.588;13.406;2022-07-22T03:49:36;19.80;99.90
25963;DHT22;13760;52.588;13.406;2022-07-22T03:52:01;19.80;99.90
25963;DHT22;13760;52.588;13.406;2022-07-22T03:54:27;19.80;99.90
25963;DHT22;13760;52.588;13.406;2022-07-22T03:56:52;19.80;99.90
25963;DHT22;13760;52.588;13.406;2022-07-22T03:59:18;19.80;99.90
25963;DHT22;13760;52.588;13.406;2022-07-22T04:01:43;19.80;99.90
25963;DHT22;13760;52.588;13.406;2022-07-22T04:04:09;19.80;99.90
25963;DHT22;13760;52.588;13.406;2022-07-22T04:06:35;19.80;99.90
25963;DHT22;13760;52.588;13.406;2022-07-22T04:09:00;19.80;99.90
25963;DHT22;13760;52.588;13.406;2022-07-22T04:11:26;19.80;99.90
25963;DHT22;13760;52.588;13.406;2022-07-22T04:13:52;19.80;99.90
25963;DHT22;13760;52.588;13.406;2022-07-22T04:16:46;19.80;99.90
25963;DHT22;13760;52.588;13.406;2022-07-22T04:19:36;19.80;99.90
25963;DHT22;13760;52.588;13.406;2022-07-22T04:22:14;19.80;99.90
25963;DHT22;13760;52.588;13.406;2022-07-22T04:24:40;19.80;99.90
25963;DHT22;13760;52.588;13.406;2022-07-22T04:27:21;19.90;99.90
25963;DHT22;13760;52.588;13.406;2022-07-22T04:29:47;19.90;99.90
25963;DHT22;13760;52.588;13.406;2022-07-22T04:32:26;19.90;99.90
25963;DHT22;13760;52.588;13.406;2022-07-22T04:34:53;19.90;99.90
25963;DHT22;13760;52.588;13.406;2022-07-22T04:37:19;19.90;99.90
25963;DHT22;13760;52.588;13.406;2022-07-22T04:39:45;20.00;99.90
25963;DHT22;13760;52.588;13.406;2022-07-22T04:42:10;20.00;99.90
25963;DHT22;13760;52.588;13.406;2022-07-22T04:44:36;20.00;99.90
25963;DHT22;13760;52.588;13.406;2022-07-22T04:47:12;19.90;99.90
25963;DHT22;13760;52.588;13.406;2022-07-22T04:49:40;19.90;99.90
25963;DHT22;13760;52.588;13.406;2022-07-22T04:52:06;19.90;99.90
25963;DHT22;13760;52.588;13.406;2022-07-22T04:54:31;19.90;99.90
25963;DHT22;13760;52.588;13.406;2022-07-22T04:56:57;19.90;99.90
25963;DHT22;13760;52.588;13.406;2022-07-22T04:59:23;20.00;99.90
25963;DHT22;13760;52.588;13.406;2022-07-22T05:02:00;20.00;99.90
25963;DHT22;13760;52.588;13.406;2022-07-22T05:04:29;20.00;99.90
25963;DHT22;13760;52.588;13.406;2022-07-22T05:07:13;20.00;99.90
25963;DHT22;13760;52.588;13.406;2022-07-22T05:09:39;20.10;99.90
25963;DHT22;13760;52.588;13.406;2022-07-22T05:12:15;20.10;99.90
25963;DHT22;13760;52.588;13.406;2022-07-22T05:14:41;20.10;99.90
25963;DHT22;13760;52.588;13.406;2022-07-22T05:17:16;20.10;99.90
25963;DHT22;13760;52.588;13.406;2022-07-22T05:19:58;20.10;99.90
25963;DHT22;13760;52.588;13.406;2022-07-22T05:22:33;20.10;99.90
25963;DHT22;13760;52.588;13.406;2022-07-22T05:25:13;20.20;99.90
25963;DHT22;13760;52.588;13.406;2022-07-22T05:27:55;20.20;99.90
25963;DHT22;13760;52.588;13.406;2022-07-22T05:30:21;20.20;99.90
25963;DHT22;13760;52.588;13.406;2022-07-22T05:32:47;20.20;99.90
25963;DHT22;13760;52.588;13.406;2022-07-22T05:35:13;20.20;99.90
25963;DHT22;13760;52.588;13.406;2022-07-22T05:37:39;20.20;99.90
25963;DHT22;13760;52.588;13.406;2022-07-22T05:40:05;20.30;99.90
25963;DHT22;13760;52.588;13.406;2022-07-22T05:42:33;20.40;99.90
25963;DHT22;13760;52.588;13.406;2022-07-22T05:45:02;20.40;99.90
25963;DHT22;13760;52.588;13.406;2022-07-22T05:47:28;20.30;99.90
25963;DHT22;13760;52.588;13.406;2022-07-22T05:49:53;20.30;99.90
25963;DHT22;13760;52.588;13.406;2022-07-22T05:52:19;20.30;99.90
25963;DHT22;13760;52.588;13.406;2022-07-22T05:54:47;20.40;99.90
25963;DHT22;13760;52.588;13.406;2022-07-22T05:57:13;20.40;99.90
25963;DHT22;13760;52.588;13.406;2022-07-22T05:59:45;20.40;99.90
25963;DHT22;13760;52.588;13.406;2022-07-22T06:02:13;20.50;99.90
25963;DHT22;13760;52.588;13.406;2022-07-22T06:04:39;20.50;99.90
25963;DHT22;13760;52.588;13.406;2022-07-22T06:07:07;20.60;99.90
25963;DHT22;13760;52.588;13.406;2022-07-22T06:09:36;20.60;99.90
25963;DHT22;13760;52.588;13.406;2022-07-22T06:12:04;20.70;99.90
25963;DHT22;13760;52.588;13.406;2022-07-22T06:14:30;20.70;99.90
25963;DHT22;13760;52.588;13.406;2022-07-22T06:16:56;20.70;99.90
25963;DHT22;13760;52.588;13.406;2022-07-22T06:19:21;20.80;99.90
25963;DHT22;13760;52.588;13.406;2022-07-22T06:21:50;20.80;99.90
25963;DHT22;13760;52.588;13.406;2022-07-22T06:24:16;20.90;99.90
25963;DHT22;13760;52.588;13.406;2022-07-22T06:26:44;20.90;99.90
25963;DHT22;13760;52.588;13.406;2022-07-22T06:29:19;20.90;99.90
25963;DHT22;13760;52.588;13.406;2022-07-22T06:31:48;21.00;99.90
25963;DHT22;13760;52.588;13.406;2022-07-22T06:34:22;21.00;99.90
25963;DHT22;13760;52.588;13.406;2022-07-22T06:37:02;21.10;99.90
25963;DHT22;13760;52.588;13.406;2022-07-22T06:39:28;21.10;99.90
25963;DHT22;13760;52.588;13.406;2022-07-22T06:41:53;21.20;99.90
25963;DHT22;13760;52.588;13.406;2022-07-22T06:44:19;21.20;99.90
25963;DHT22;13760;52.588;13.406;2022-07-22T06:46:45;21.20;99.90
25963;DHT22;13760;52.588;13.406;2022-07-22T06:49:11;21.30;99.90
25963;DHT22;13760;52.588;13.406;2022-07-22T06:51:36;21.30;99.90
25963;DHT22;13760;52.588;13.406;2022-07-22T06:54:02;21.30;99.90
25963;DHT22;13760;52.588;13.406;2022-07-22T06:56:28;21.30;99.90
25963;DHT22;13760;52.588;13.406;2022-07-22T06:58:53;21.40;99.90
25963;DHT22;13760;52.588;13.406;2022-07-22T07:01:19;21.40;99.90
25963;DHT22;13760;52.588;13.406;2022-07-22T07:03:44;21.50;99.90
25963;DHT22;13760;52.588;13.406;2022-07-22T07:06:11;21.50;99.90
25963;DHT22;13760;52.588;13.406;2022-07-22T07:08:41;21.60;99.90
25963;DHT22;13760;52.588;13.406;2022-07-22T07:11:07;21.60;99.90
25963;DHT22;13760;52.588;13.406;2022-07-22T07:13:33;21.70;99.90
25963;DHT22;13760;52.588;13.406;2022-07-22T07:15:59;21.80;99.90
25963;DHT22;13760;52.588;13.406;2022-07-22T07:18:25;21.80;99.90
25963;DHT22;13760;52.588;13.406;2022-07-22T07:20:53;21.80;99.90
25963;DHT22;13760;52.588;13.406;2022-07-22T07:23:19;21.90;99.90
25963;DHT22;13760;52.588;13.406;2022-07-22T07:25:44;21.80;99.90
25963;DHT22;13760;52.588;13.406;2022-07-22T07:28:10;21.80;99.90
25963;DHT22;13760;52.588;13.406;2022-07-22T07:30:36;21.90;99.90
25963;DHT22;13760;52.588;13.406;2022-07-22T07:33:01;22.00;99.90
25963;DHT22;13760;52.588;13.406;2022-07-22T07:35:28;22.20;99.90
25963;DHT22;13760;52.588;13.406;2022-07-22T07:37:53;22.40;99.90
25963;DHT22;13760;52.588;13.406;2022-07-22T07:40:19;22.50;99.90
25963;DHT22;13760;52.588;13.406;2022-07-22T07:42:45;22.60;99.90
25963;DHT22;13760;52.588;13.406;2022-07-22T07:45:10;23.00;99.90
25963;DHT22;13760;52.588;13.406;2022-07-22T07:47:36;23.10;99.90
25963;DHT22;13760;52.588;13.406;2022-07-22T07:50:04;23.10;99.90
25963;DHT22;13760;52.588;13.406;2022-07-22T07:52:39;23.20;99.90
25963;DHT22;13760;52.588;13.406;2022-07-22T07:55:06;23.10;99.90
25963;DHT22;13760;52.588;13.406;2022-07-22T07:57:33;23.20;99.90
25963;DHT22;13760;52.588;13.406;2022-07-22T07:59:58;23.20;99.90
25963;DHT22;13760;52.588;13.406;2022-07-22T08:02:24;23.40;99.90
25963;DHT22;13760;52.588;13.406;2022-07-22T08:04:49;23.60;99.90
25963;DHT22;13760;52.588;13.406;2022-07-22T08:07:15;23.60;99.90
25963;DHT22;13760;52.588;13.406;2022-07-22T08:09:41;23.70;99.90
25963;DHT22;13760;52.588;13.406;2022-07-22T08:12:07;23.70;99.90
25963;DHT22;13760;52.588;13.406;2022-07-22T08:14:32;23.80;99.90
25963;DHT22;13760;52.588;13.406;2022-07-22T08:16:59;23.70;99.90
25963;DHT22;13760;52.588;13.406;2022-07-22T08:19:24;23.60;99.90
25963;DHT22;13760;52.588;13.406;2022-07-22T08:21:50;23.60;99.90
25963;DHT22;13760;52.588;13.406;2022-07-22T08:24:16;23.60;99.90
25963;DHT22;13760;52.588;13.406;2022-07-22T08:26:42;23.60;99.90
25963;DHT22;13760;52.588;13.406;2022-07-22T08:29:07;23.70;99.90
25963;DHT22;13760;52.588;13.406;2022-07-22T08:31:35;23.70;99.90
25963;DHT22;13760;52.588;13.406;2022-07-22T08:34:05;23.70;99.90
25963;DHT22;13760;52.588;13.406;2022-07-22T08:36:31;23.70;99.90
25963;DHT22;13760;52.588;13.406;2022-07-22T08:38:57;23.70;99.90
25963;DHT22;13760;52.588;13.406;2022-07-22T08:41:23;23.60;99.90
25963;DHT22;13760;52.588;13.406;2022-07-22T08:43:49;23.50;99.90
25963;DHT22;13760;52.588;13.406;2022-07-22T08:46:15;23.40;99.90
25963;DHT22;13760;52.588;13.406;2022-07-22T08:48:44;23.40;99.90
25963;DHT22;13760;52.588;13.406;2022-07-22T08:51:12;23.40;99.90
25963;DHT22;13760;52.588;13.406;2022-07-22T08:53:40;23.40;99.90
25963;DHT22;13760;52.588;13.406;2022-07-22T08:56:35;23.50;99.90
25963;DHT22;13760;52.588;13.406;2022-07-22T08:59:03;23.50;99.90
25963;DHT22;13760;52.588;13.406;2022-07-22T09:01:32;23.60;99.90
25963;DHT22;13760;52.588;13.406;2022-07-22T09:03:59;23.70;99.90
25963;DHT22;13760;52.588;13.406;2022-07-22T09:06:26;23.60;99.90
25963;DHT22;13760;52.588;13.406;2022-07-22T09:08:57;23.50;99.90
25963;DHT22;13760;52.588;13.406;2022-07-22T09:11:24;23.40;99.90
25963;DHT22;13760;52.588;13.406;2022-07-22T09:13:50;23.30;99.90
25963;DHT22;13760;52.588;13.406;2022-07-22T09:16:27;23.20;99.90
25963;DHT22;13760;52.588;13.406;2022-07-22T09:19:02;23.20;99.90
25963;DHT22;13760;52.588;13.406;2022-07-22T09:21:31;23.10;99.90
25963;DHT22;13760;52.588;13.406;2022-07-22T09:23:57;23.00;99.90
25963;DHT22;13760;52.588;13.406;2022-07-22T09:26:37;22.80;99.90
25963;DHT22;13760;52.588;13.406;2022-07-22T09:29:04;22.70;99.90
25963;DHT22;13760;52.588;13.406;2022-07-22T09:31:35;22.70;99.90
25963;DHT22;13760;52.588;13.406;2022-07-22T09:34:03;22.60;99.90
25963;DHT22;13760;52.588;13.406;2022-07-22T09:36:29;22.50;99.90
25963;DHT22;13760;52.588;13.406;2022-07-22T09:38:55;22.40;99.90
25963;DHT22;13760;52.588;13.406;2022-07-22T09:41:21;22.40;99.90
25963;DHT22;13760;52.588;13.406;2022-07-22T09:43:48;22.30;99.90
25963;DHT22;13760;52.588;13.406;2022-07-22T09:46:15;22.40;99.90
25963;DHT22;13760;52.588;13.406;2022-07-22T09:48:41;22.40;99.90
25963;DHT22;13760;52.588;13.406;2022-07-22T09:51:07;22.50;99.90
25963;DHT22;13760;52.588;13.406;2022-07-22T09:53:33;22.60;99.90
25963;DHT22;13760;52.588;13.406;2022-07-22T09:56:02;22.80;99.90
25963;DHT22;13760;52.588;13.406;2022-07-22T09:58:29;23.00;99.90
25963;DHT22;13760;52.588;13.406;2022-07-22T10:00:58;23.10;99.90
25963;DHT22;13760;52.588;13.406;2022-07-22T10:03:31;23.10;99.90
25963;DHT22;13760;52.588;13.406;2022-07-22T10:05:58;23.10;99.90
25963;DHT22;13760;52.588;13.406;2022-07-22T10:08:26;23.10;99.90
25963;DHT22;13760;52.588;13.406;2022-07-22T10:10:53;23.10;99.90
25963;DHT22;13760;52.588;13.406;2022-07-22T10:13:19;23.10;99.90
25963;DHT22;13760;52.588;13.406;2022-07-22T10:15:46;23.10;99.90
25963;DHT22;13760;52.588;13.406;2022-07-22T10:18:17;23.00;99.90
25963;DHT22;13760;52.588;13.406;2022-07-22T10:20:43;23.00;99.90
25963;DHT22;13760;52.588;13.406;2022-07-22T10:23:10;23.00;99.90
25963;DHT22;13760;52.588;13.406;2022-07-22T10:25:59;23.00;99.90
25963;DHT22;13760;52.588;13.406;2022-07-22T10:28:28;23.00;99.90
25963;DHT22;13760;52.588;13.406;2022-07-22T10:33:39;23.10;99.90
25963;DHT22;13760;52.588;13.406;2022-07-22T10:36:05;23.20;99.90
25963;DHT22;13760;52.588;13.406;2022-07-22T10:38:32;23.40;99.90
25963;DHT22;13760;52.588;13.406;2022-07-22T10:43:29;23.70;99.90
25963;DHT22;13760;52.588;13.406;2022-07-22T10:46:00;23.80;99.90
25963;DHT22;13760;52.588;13.406;2022-07-22T10:56:23;24.30;99.90
25963;DHT22;13760;52.588;13.406;2022-07-22T11:01:28;24.50;99.90
25963;DHT22;13760;52.588;13.406;2022-07-22T11:03:55;24.70;99.90
25963;DHT22;13760;52.588;13.406;2022-07-22T11:06:28;25.00;99.90
25963;DHT22;13760;52.588;13.406;2022-07-22T11:09:01;25.30;99.90
25963;DHT22;13760;52.588;13.406;2022-07-22T11:11:39;25.30;99.90
25963;DHT22;13760;52.588;13.406;2022-07-22T11:14:20;25.20;99.90
25963;DHT22;13760;52.588;13.406;2022-07-22T11:16:48;25.10;99.90
25963;DHT22;13760;52.588;13.406;2022-07-22T11:19:15;24.90;99.90
25963;DHT22;13760;52.588;13.406;2022-07-22T11:21:50;24.90;99.90
25963;DHT22;13760;52.588;13.406;2022-07-22T11:24:17;25.10;99.90
25963;DHT22;13760;52.588;13.406;2022-07-22T11:26:45;25.30;99.90
25963;DHT22;13760;52.588;13.406;2022-07-22T11:29:38;25.30;99.90
25963;DHT22;13760;52.588;13.406;2022-07-22T11:32:11;25.30;99.90
25963;DHT22;13760;52.588;13.406;2022-07-22T11:34:39;25.20;99.90
25963;DHT22;13760;52.588;13.406;2022-07-22T11:37:08;25.10;99.90
25963;DHT22;13760;52.588;13.406;2022-07-22T11:39:34;25.00;99.90
25963;DHT22;13760;52.588;13.406;2022-07-22T11:42:00;24.90;99.90
25963;DHT22;13760;52.588;13.406;2022-07-22T11:44:29;24.80;99.90
25963;DHT22;13760;52.588;13.406;2022-07-22T11:46:55;24.70;99.90
25963;DHT22;13760;52.588;13.406;2022-07-22T11:49:25;24.70;99.90
25963;DHT22;13760;52.588;13.406;2022-07-22T11:51:51;24.60;99.90
25963;DHT22;13760;52.588;13.406;2022-07-22T11:54:17;24.60;99.90
25963;DHT22;13760;52.588;13.406;2022-07-22T11:56:43;24.60;99.90
25963;DHT22;13760;52.588;13.406;2022-07-22T11:59:13;24.50;99.90
25963;DHT22;13760;52.588;13.406;2022-07-22T12:01:39;24.50;99.90
25963;DHT22;13760;52.588;13.406;2022-07-22T12:04:08;24.50;99.90
25963;DHT22;13760;52.588;13.406;2022-07-22T12:06:36;24.60;99.90
25963;DHT22;13760;52.588;13.406;2022-07-22T12:11:30;24.70;99.90
25963;DHT22;13760;52.588;13.406;2022-07-22T12:14:05;24.50;99.90
25963;DHT22;13760;52.588;13.406;2022-07-22T12:16:31;24.50;99.90
25963;DHT22;13760;52.588;13.406;2022-07-22T12:18:59;24.50;99.90
25963;DHT22;13760;52.588;13.406;2022-07-22T12:21:27;24.30;99.90
25963;DHT22;13760;52.588;13.406;2022-07-22T12:23:55;24.40;99.90
25963;DHT22;13760;52.588;13.406;2022-07-22T12:31:46;24.50;99.90
25963;DHT22;13760;52.588;13.406;2022-07-22T12:34:12;24.50;99.90
25963;DHT22;13760;52.588;13.406;2022-07-22T12:36:38;24.40;99.90
25963;DHT22;13760;52.588;13.406;2022-07-22T12:39:16;24.30;99.90
25963;DHT22;13760;52.588;13.406;2022-07-22T12:41:51;24.30;99.90
25963;DHT22;13760;52.588;13.406;2022-07-22T12:44:22;24.40;99.90
25963;DHT22;13760;52.588;13.406;2022-07-22T12:46:51;24.60;99.90
25963;DHT22;13760;52.588;13.406;2022-07-22T12:49:19;24.80;99.90
25963;DHT22;13760;52.588;13.406;2022-07-22T12:52:08;25.00;99.90
25963;DHT22;13760;52.588;13.406;2022-07-22T12:54:35;25.00;99.90
25963;DHT22;13760;52.588;13.406;2022-07-22T12:57:01;25.10;99.90
25963;DHT22;13760;52.588;13.406;2022-07-22T12:59:27;25.20;99.90
25963;DHT22;13760;52.588;13.406;2022-07-22T13:01:53;25.20;99.90
25963;DHT22;13760;52.588;13.406;2022-07-22T13:04:18;25.10;99.90
25963;DHT22;13760;52.588;13.406;2022-07-22T13:06:44;25.20;99.90
25963;DHT22;13760;52.588;13.406;2022-07-22T13:09:09;25.30;99.90
25963;DHT22;13760;52.588;13.406;2022-07-22T13:11:35;25.50;99.90
25963;DHT22;13760;52.588;13.406;2022-07-22T13:14:07;25.60;99.90
25963;DHT22;13760;52.588;13.406;2022-07-22T13:16:33;25.60;99.90
25963;DHT22;13760;52.588;13.406;2022-07-22T13:18:59;25.50;99.90
25963;DHT22;13760;52.588;13.406;2022-07-22T13:21:24;25.40;99.90
25963;DHT22;13760;52.588;13.406;2022-07-22T13:23:50;25.30;99.90
25963;DHT22;13760;52.588;13.406;2022-07-22T13:26:16;25.30;99.90
25963;DHT22;13760;52.588;13.406;2022-07-22T13:28:41;25.10;99.90
25963;DHT22;13760;52.588;13.406;2022-07-22T13:31:08;25.00;99.90
25963;DHT22;13760;52.588;13.406;2022-07-22T13:33:34;25.10;99.90
25963;DHT22;13760;52.588;13.406;2022-07-22T13:35:59;25.10;99.90
25963;DHT22;13760;52.588;13.406;2022-07-22T13:38:25;25.10;99.90
25963;DHT22;13760;52.588;13.406;2022-07-22T13:40:51;25.00;99.90
25963;DHT22;13760;52.588;13.406;2022-07-22T13:43:21;24.90;99.90
25963;DHT22;13760;52.588;13.406;2022-07-22T13:45:48;24.90;99.90
25963;DHT22;13760;52.588;13.406;2022-07-22T13:48:14;24.90;99.90
25963;DHT22;13760;52.588;13.406;2022-07-22T13:50:40;24.90;99.90
25963;DHT22;13760;52.588;13.406;2022-07-22T13:53:09;24.80;99.90
25963;DHT22;13760;52.588;13.406;2022-07-22T13:55:34;24.80;99.90
25963;DHT22;13760;52.588;13.406;2022-07-22T13:58:02;24.60;99.90
25963;DHT22;13760;52.588;13.406;2022-07-22T14:00:28;24.80;99.90
25963;DHT22;13760;52.588;13.406;2022-07-22T14:02:53;25.20;99.90
25963;DHT22;13760;52.588;13.406;2022-07-22T14:05:19;25.50;99.90
25963;DHT22;13760;52.588;13.406;2022-07-22T14:07:44;25.60;99.90
25963;DHT22;13760;52.588;13.406;2022-07-22T14:10:10;25.60;99.90
25963;DHT22;13760;52.588;13.406;2022-07-22T14:12:37;25.40;99.90
25963;DHT22;13760;52.588;13.406;2022-07-22T14:15:03;25.60;99.90
25963;DHT22;13760;52.588;13.406;2022-07-22T14:17:29;25.70;99.90
25963;DHT22;13760;52.588;13.406;2022-07-22T14:19:55;26.10;99.90
25963;DHT22;13760;52.588;13.406;2022-07-22T14:22:21;26.60;99.90
25963;DHT22;13760;52.588;13.406;2022-07-22T14:24:46;26.90;99.90
25963;DHT22;13760;52.588;13.406;2022-07-22T14:27:12;27.10;99.90
25963;DHT22;13760;52.588;13.406;2022-07-22T14:29:38;27.10;99.90
25963;DHT22;13760;52.588;13.406;2022-07-22T14:32:04;27.00;99.90
25963;DHT22;13760;52.588;13.406;2022-07-22T14:34:30;26.90;99.90
25963;DHT22;13760;52.588;13.406;2022-07-22T14:36:56;26.70;99.90
25963;DHT22;13760;52.588;13.406;2022-07-22T14:39:21;26.40;99.90
25963;DHT22;13760;52.588;13.406;2022-07-22T14:41:47;26.20;99.90
25963;DHT22;13760;52.588;13.406;2022-07-22T14:44:13;26.00;99.90
25963;DHT22;13760;52.588;13.406;2022-07-22T14:46:39;25.90;99.90
25963;DHT22;13760;52.588;13.406;2022-07-22T14:49:07;25.70;99.90
25963;DHT22;13760;52.588;13.406;2022-07-22T14:51:35;25.60;99.90
25963;DHT22;13760;52.588;13.406;2022-07-22T14:54:01;25.50;99.90
25963;DHT22;13760;52.588;13.406;2022-07-22T14:56:27;25.30;99.90
25963;DHT22;13760;52.588;13.406;2022-07-22T14:58:52;25.30;99.90
25963;DHT22;13760;52.588;13.406;2022-07-22T15:01:18;25.20;99.90
25963;DHT22;13760;52.588;13.406;2022-07-22T15:03:44;25.10;99.90
25963;DHT22;13760;52.588;13.406;2022-07-22T15:06:09;25.10;99.90
25963;DHT22;13760;52.588;13.406;2022-07-22T15:08:36;25.10;99.90
25963;DHT22;13760;52.588;13.406;2022-07-22T15:11:01;25.10;99.90
25963;DHT22;13760;52.588;13.406;2022-07-22T15:13:28;25.00;99.90
25963;DHT22;13760;52.588;13.406;2022-07-22T15:15:54;25.00;99.90
25963;DHT22;13760;52.588;13.406;2022-07-22T15:18:20;24.90;99.90
25963;DHT22;13760;52.588;13.406;2022-07-22T15:20:46;24.80;99.90
25963;DHT22;13760;52.588;13.406;2022-07-22T15:23:12;24.70;99.90
25963;DHT22;13760;52.588;13.406;2022-07-22T15:25:39;24.70;99.90
25963;DHT22;13760;52.588;13.406;2022-07-22T15:28:05;24.60;99.90
25963;DHT22;13760;52.588;13.406;2022-07-22T15:30:32;24.50;99.90
25963;DHT22;13760;52.588;13.406;2022-07-22T15:32:57;24.50;99.90
25963;DHT22;13760;52.588;13.406;2022-07-22T15:35:23;24.50;99.90
25963;DHT22;13760;52.588;13.406;2022-07-22T15:37:49;24.40;99.90
25963;DHT22;13760;52.588;13.406;2022-07-22T15:40:15;24.40;99.90